Time;durP1;ratioP1;P1;durP2;ratioP2;P2;SDS_P1;SDS_P2;PMS_P1;PMS_P2;Temp;Humidity;BMP_temperature;BMP_pressure;BME280_temperature;BME280_humidity;BME280_pressure;Samples;Min_cycle;Max_cycle;Signal;HPM_P1;HPM_P2
2023/01/26 00:01:43;;;;;;;196.52;72.93;;;0.50;99.90;;;;;;5032056;28;20116;-72
2023/01/26 00:04:09;;;;;;;188.10;71.20;;;0.50;99.90;;;;;;5032395;28;20024;-74
2023/01/26 00:06:35;;;;;;;196.02;73.07;;;0.50;99.90;;;;;;5031603;28;20045;-73
2023/01/26 00:09:01;;;;;;;193.75;73.97;;;0.50;99.90;;;;;;5032244;28;20061;-73
2023/01/26 00:11:29;;;;;;;203.52;73.63;;;0.50;99.90;;;;;;5031934;28;20030;-72
2023/01/26 00:13:56;;;;;;;185.85;70.28;;;0.50;99.90;;;;;;5031637;28;20036;-74
2023/01/26 00:16:22;;;;;;;188.20;72.20;;;0.50;99.90;;;;;;5031388;28;20475;-72
2023/01/26 00:18:48;;;;;;;189.75;70.15;;;0.60;99.90;;;;;;5032001;28;20026;-73
2023/01/26 00:21:19;;;;;;;185.18;70.03;;;0.50;99.90;;;;;;5031867;28;20071;-73
2023/01/26 00:23:46;;;;;;;207.50;71.90;;;0.40;99.90;;;;;;5031862;28;20029;-72
2023/01/26 00:26:17;;;;;;;197.27;71.00;;;0.40;99.90;;;;;;5031224;28;20033;-72
2023/01/26 00:28:43;;;;;;;187.77;71.63;;;0.50;99.90;;;;;;5031423;28;20367;-74
2023/01/26 00:31:16;;;;;;;178.18;66.53;;;0.50;99.90;;;;;;5031632;28;20044;-73
2023/01/26 00:33:41;;;;;;;166.27;61.63;;;0.50;99.90;;;;;;5031421;28;20029;-72
2023/01/26 00:36:07;;;;;;;181.23;66.72;;;0.40;99.90;;;;;;5030602;28;20368;-72
2023/01/26 00:38:33;;;;;;;164.30;62.97;;;0.50;99.90;;;;;;5031724;28;20017;-73
2023/01/26 00:40:59;;;;;;;176.02;65.95;;;0.50;99.90;;;;;;5031446;28;20025;-73
2023/01/26 00:43:24;;;;;;;167.45;62.47;;;0.50;99.90;;;;;;5031543;28;20039;-73
2023/01/26 00:45:50;;;;;;;171.45;63.67;;;0.50;99.90;;;;;;5031010;28;20025;-73
2023/01/26 00:48:16;;;;;;;160.73;63.15;;;0.50;99.90;;;;;;5031592;28;20527;-73
2023/01/26 00:50:41;;;;;;;162.88;62.80;;;0.50;99.90;;;;;;5031396;28;20033;-73
2023/01/26 00:53:07;;;;;;;161.52;62.85;;;0.50;99.90;;;;;;5031375;28;20033;-75
2023/01/26 00:55:33;;;;;;;170.15;62.50;;;0.50;99.90;;;;;;5030882;28;20026;-73
2023/01/26 00:58:03;;;;;;;162.57;63.08;;;0.50;99.90;;;;;;5031487;28;20027;-73
2023/01/26 01:00:29;;;;;;;171.60;65.75;;;0.50;99.90;;;;;;5031841;28;20029;-72
2023/01/26 01:02:55;;;;;;;167.85;65.80;;;0.50;99.90;;;;;;5037241;28;20120;-73
2023/01/26 01:05:26;;;;;;;173.48;66.97;;;0.50;99.90;;;;;;5048433;28;20094;-72
2023/01/26 01:07:52;;;;;;;166.30;65.95;;;0.50;99.90;;;;;;5050910;28;20040;-72
2023/01/26 01:10:17;;;;;;;164.95;65.63;;;0.50;99.90;;;;;;5051297;28;20021;-72
2023/01/26 01:12:43;;;;;;;168.00;65.63;;;0.50;99.90;;;;;;5050790;28;20478;-71
2023/01/26 01:15:09;;;;;;;174.75;66.03;;;0.60;99.90;;;;;;5051286;28;20032;-72
2023/01/26 01:17:36;;;;;;;162.63;63.83;;;0.40;99.90;;;;;;5050562;28;20048;-71
2023/01/26 01:20:06;;;;;;;166.65;62.85;;;0.50;99.90;;;;;;5051168;28;20475;-72
2023/01/26 01:22:33;;;;;;;165.93;63.10;;;0.40;99.90;;;;;;5050823;28;20013;-73
2023/01/26 01:24:58;;;;;;;162.43;63.70;;;0.50;99.90;;;;;;5051011;28;20026;-72
2023/01/26 01:27:24;;;;;;;165.93;63.78;;;0.60;99.90;;;;;;5050546;28;20450;-73
2023/01/26 01:29:50;;;;;;;170.45;65.35;;;0.50;99.90;;;;;;5051069;28;20079;-73
2023/01/26 01:32:16;;;;;;;160.68;62.67;;;0.50;99.90;;;;;;5051126;28;20520;-72
2023/01/26 01:34:42;;;;;;;165.90;63.10;;;0.50;99.90;;;;;;5050953;28;20029;-73
2023/01/26 01:37:07;;;;;;;171.27;65.43;;;0.50;99.90;;;;;;5050481;28;20444;-73
2023/01/26 01:39:33;;;;;;;158.63;62.88;;;0.60;99.90;;;;;;5051012;28;20104;-72
2023/01/26 01:41:58;;;;;;;158.90;61.28;;;0.60;99.90;;;;;;5050903;28;20075;-72
2023/01/26 01:44:25;;;;;;;167.55;63.90;;;0.70;99.90;;;;;;5051031;28;20029;-72
2023/01/26 01:47:04;;;;;;;157.50;62.58;;;0.70;99.90;;;;;;5052311;28;20520;-72
2023/01/26 01:49:46;;;;;;;162.98;65.25;;;0.70;99.90;;;;;;5054741;28;20474;-72
2023/01/26 01:52:16;;;;;;;159.70;63.80;;;0.70;99.90;;;;;;5054717;28;20059;-72
2023/01/26 01:54:54;;;;;;;155.63;62.15;;;0.80;99.90;;;;;;5054423;28;20025;-72
2023/01/26 01:57:28;;;;;;;151.48;60.80;;;0.80;99.90;;;;;;5054310;28;20462;-73
2023/01/26 02:00:16;;;;;;;158.02;63.55;;;0.80;99.90;;;;;;5054509;28;20478;-72
2023/01/26 02:02:44;;;;;;;159.20;59.17;;;0.80;99.90;;;;;;5054295;28;20059;-72
2023/01/26 02:05:23;;;;;;;150.27;61.50;;;0.80;99.90;;;;;;5054375;28;20017;-72
2023/01/26 02:07:50;;;;;;;148.43;61.72;;;0.80;99.90;;;;;;5054923;28;20037;-73
2023/01/26 02:10:18;;;;;;;141.73;57.10;;;0.80;99.90;;;;;;5061452;28;20021;-74
2023/01/26 02:12:49;;;;;;;140.45;57.83;;;0.80;99.90;;;;;;5058317;28;20498;-73
2023/01/26 02:15:15;;;;;;;138.70;57.47;;;0.90;99.90;;;;;;5056592;28;20102;-74
2023/01/26 02:17:40;;;;;;;142.07;59.90;;;0.80;99.90;;;;;;5055747;28;20021;-73
2023/01/26 02:20:06;;;;;;;153.05;61.42;;;0.80;99.90;;;;;;5054875;28;20028;-73
2023/01/26 02:22:46;;;;;;;141.80;59.58;;;0.80;99.90;;;;;;5055317;28;20355;-74
2023/01/26 02:25:26;;;;;;;144.70;58.50;;;0.80;99.90;;;;;;5054635;28;20418;-73
2023/01/26 02:27:51;;;;;;;140.07;57.72;;;0.80;99.90;;;;;;5056355;28;20021;-74
2023/01/26 02:30:17;;;;;;;139.95;57.30;;;0.80;99.90;;;;;;5056016;28;20078;-73
2023/01/26 02:32:42;;;;;;;143.55;56.50;;;0.70;99.90;;;;;;5055377;28;20028;-73
2023/01/26 02:35:08;;;;;;;137.52;57.67;;;0.80;99.90;;;;;;5055728;28;20025;-73
2023/01/26 02:37:34;;;;;;;139.77;57.25;;;0.70;99.90;;;;;;5056614;28;20036;-73
2023/01/26 02:40:06;;;;;;;136.55;56.00;;;0.70;99.90;;;;;;5054163;28;20094;-72
2023/01/26 02:42:37;;;;;;;127.82;54.33;;;0.70;99.90;;;;;;5053699;28;20025;-73
2023/01/26 02:45:04;;;;;;;124.35;51.92;;;0.70;99.90;;;;;;5054065;28;20025;-72
2023/01/26 02:47:30;;;;;;;127.70;52.45;;;0.80;99.90;;;;;;5055445;28;20429;-74
2023/01/26 02:49:57;;;;;;;126.18;52.22;;;0.70;99.90;;;;;;5056817;28;20036;-73
2023/01/26 02:52:25;;;;;;;130.10;53.10;;;0.70;99.90;;;;;;5055598;28;20017;-73
2023/01/26 02:57:36;;;;;;;119.15;50.17;;;0.70;99.90;;;;;;5057288;28;20389;-73
2023/01/26 03:00:05;;;;;;;123.63;52.38;;;0.70;99.90;;;;;;5056019;28;20025;-74
2023/01/26 03:02:30;;;;;;;128.43;51.35;;;0.80;99.90;;;;;;5056926;28;20228;-74
2023/01/26 03:04:56;;;;;;;128.60;51.72;;;0.80;99.90;;;;;;5058301;28;20055;-75
2023/01/26 03:07:21;;;;;;;124.95;51.03;;;0.80;99.90;;;;;;5055757;28;20451;-73
2023/01/26 03:09:47;;;;;;;126.40;51.83;;;0.80;99.90;;;;;;5053799;28;20021;-73
2023/01/26 03:12:12;;;;;;;127.97;51.45;;;0.80;99.90;;;;;;5053142;28;20078;-74
2023/01/26 03:14:38;;;;;;;117.22;50.03;;;0.80;99.90;;;;;;5053117;28;20078;-74
2023/01/26 03:17:03;;;;;;;121.97;49.90;;;0.80;99.90;;;;;;5052449;28;20044;-72
2023/01/26 03:27:44;;;;;;;92.35;38.05;;;0.90;99.90;;;;;;5055670;28;20629;-73
2023/01/26 03:30:11;;;;;;;120.32;50.00;;;1.00;99.90;;;;;;5055647;28;20029;-72
2023/01/26 03:32:37;;;;;;;122.38;50.92;;;0.90;99.90;;;;;;5054627;28;20116;-72
2023/01/26 03:35:02;;;;;;;122.78;50.20;;;0.90;99.90;;;;;;5052530;28;20104;-72
2023/01/26 03:37:33;;;;;;;117.72;49.10;;;0.90;99.90;;;;;;5052016;28;20029;-72
2023/01/26 03:56:31;;;;;;;114.40;48.05;;;1.10;99.90;;;;;;5038801;28;20056;-73
2023/01/26 03:59:07;;;;;;;117.82;49.55;;;1.10;99.90;;;;;;5042985;28;20374;-75
2023/01/26 04:01:37;;;;;;;114.68;47.15;;;1.20;99.90;;;;;;5042620;28;20021;-76
2023/01/26 04:09:34;;;;;;;97.40;42.33;;;1.20;99.90;;;;;;5045901;28;20032;-72
2023/01/26 04:11:59;;;;;;;103.22;43.85;;;1.20;99.90;;;;;;5044511;28;20035;-73
2023/01/26 04:22:42;;;;;;;106.28;45.75;;;1.20;99.90;;;;;;5040172;28;20086;-73
2023/01/26 04:25:09;;;;;;;98.88;43.55;;;1.30;99.90;;;;;;5049420;28;20028;-74
2023/01/26 04:27:35;;;;;;;99.53;42.80;;;1.20;99.90;;;;;;5043316;28;20095;-73
2023/01/26 04:30:02;;;;;;;100.15;43.85;;;1.10;99.90;;;;;;5044784;28;20025;-73
2023/01/26 04:32:28;;;;;;;102.63;44.35;;;1.10;99.90;;;;;;5039913;28;20021;-73
2023/01/26 04:34:54;;;;;;;100.00;43.83;;;1.20;99.90;;;;;;5042565;28;20395;-71
2023/01/26 04:37:20;;;;;;;99.57;43.40;;;1.20;99.90;;;;;;5040871;28;20028;-72
2023/01/26 04:39:46;;;;;;;97.60;43.13;;;1.20;99.90;;;;;;5046677;28;20025;-74
2023/01/26 04:42:11;;;;;;;94.05;41.95;;;1.20;99.90;;;;;;5042463;28;20037;-72
2023/01/26 04:44:37;;;;;;;95.25;43.08;;;1.20;99.90;;;;;;5041439;28;20079;-72
2023/01/26 04:47:03;;;;;;;98.05;42.25;;;1.20;99.90;;;;;;5042886;28;20037;-72
2023/01/26 04:49:29;;;;;;;93.15;41.10;;;1.10;99.90;;;;;;5040665;28;20335;-73
2023/01/26 04:51:54;;;;;;;92.63;40.70;;;1.10;99.90;;;;;;5043398;28;20025;-72
2023/01/26 04:54:20;;;;;;;98.18;40.92;;;1.20;99.90;;;;;;5044308;28;20033;-73
2023/01/26 04:56:45;;;;;;;101.13;41.85;;;1.20;99.90;;;;;;5042631;28;20029;-74
2023/01/26 04:59:11;;;;;;;93.50;40.85;;;1.20;99.90;;;;;;5037783;28;20022;-73
2023/01/26 05:01:37;;;;;;;92.72;41.58;;;1.30;99.90;;;;;;5038957;28;20025;-73
2023/01/26 05:04:03;;;;;;;94.97;42.60;;;1.30;99.90;;;;;;5031346;28;20021;-73
2023/01/26 05:06:30;;;;;;;90.53;40.75;;;1.40;99.90;;;;;;5030971;28;20029;-73
2023/01/26 05:08:56;;;;;;;89.97;40.75;;;1.40;99.90;;;;;;5032102;28;20032;-72
2023/01/26 05:11:21;;;;;;;87.88;40.90;;;1.30;99.90;;;;;;5031668;28;20390;-73
2023/01/26 05:13:47;;;;;;;86.97;39.25;;;1.30;99.90;;;;;;5031339;28;20038;-70
2023/01/26 05:16:13;;;;;;;86.45;39.20;;;1.40;99.90;;;;;;5031189;28;20117;-71
2023/01/26 05:18:40;;;;;;;77.78;36.50;;;1.40;99.90;;;;;;5031700;28;20398;-72
2023/01/26 05:21:05;;;;;;;87.00;39.35;;;1.40;99.90;;;;;;5031545;28;20041;-69
2023/01/26 05:23:31;;;;;;;86.25;38.50;;;1.40;99.90;;;;;;5033793;28;20033;-70
2023/01/26 05:25:56;;;;;;;83.15;38.10;;;1.40;99.90;;;;;;5034725;28;20026;-70
2023/01/26 05:28:22;;;;;;;82.38;36.53;;;1.30;99.90;;;;;;5034954;28;20116;-72
2023/01/26 05:30:47;;;;;;;81.78;37.67;;;1.30;99.90;;;;;;5034828;28;20056;-72
2023/01/26 05:33:13;;;;;;;76.97;35.38;;;1.30;99.90;;;;;;5034919;28;20025;-71
2023/01/26 05:35:39;;;;;;;81.32;36.65;;;1.40;99.90;;;;;;5034530;28;20056;-70
2023/01/26 05:38:04;;;;;;;80.63;36.80;;;1.50;99.90;;;;;;5035070;28;20390;-71
2023/01/26 05:40:30;;;;;;;79.05;35.08;;;1.40;99.90;;;;;;5034981;28;20056;-75
2023/01/26 05:42:55;;;;;;;84.47;37.00;;;1.40;99.90;;;;;;5035380;28;20084;-73
2023/01/26 05:45:21;;;;;;;83.40;36.75;;;1.50;99.90;;;;;;5035697;28;20044;-74
2023/01/26 05:47:47;;;;;;;76.75;35.08;;;1.40;99.90;;;;;;5035343;28;20131;-73
2023/01/26 05:50:14;;;;;;;76.15;36.42;;;1.30;99.90;;;;;;5034584;28;20021;-75
2023/01/26 05:52:40;;;;;;;86.43;37.03;;;1.40;99.90;;;;;;5034161;28;20021;-74
2023/01/26 05:55:06;;;;;;;82.95;37.13;;;1.40;99.90;;;;;;5034630;28;20529;-70
2023/01/26 05:57:32;;;;;;;87.82;36.70;;;1.40;99.90;;;;;;5034417;28;20026;-70
2023/01/26 05:59:57;;;;;;;80.88;36.05;;;1.40;99.90;;;;;;5034853;28;20474;-71
2023/01/26 06:02:26;;;;;;;79.97;36.08;;;1.40;99.90;;;;;;5034611;28;20026;-70
2023/01/26 06:04:51;;;;;;;80.60;35.85;;;1.50;99.90;;;;;;5034701;28;20028;-70
2023/01/26 06:07:17;;;;;;;79.85;34.85;;;1.50;99.90;;;;;;5033820;28;20017;-71
2023/01/26 06:09:44;;;;;;;77.97;36.13;;;1.50;99.90;;;;;;5034696;28;20101;-71
2023/01/26 06:12:17;;;;;;;77.28;35.60;;;1.50;99.90;;;;;;5033728;28;20025;-71
2023/01/26 06:14:43;;;;;;;87.20;37.80;;;1.50;99.90;;;;;;5033920;28;20029;-72
2023/01/26 06:17:08;;;;;;;85.35;35.53;;;1.50;99.90;;;;;;5036177;28;20386;-71
2023/01/26 06:19:35;;;;;;;74.63;33.78;;;1.50;99.90;;;;;;5039788;28;20068;-71
2023/01/26 06:22:01;;;;;;;80.15;34.40;;;1.50;99.90;;;;;;5039808;28;20024;-72
2023/01/26 06:24:26;;;;;;;75.63;33.78;;;1.60;99.90;;;;;;5050168;28;20041;-72
2023/01/26 06:26:52;;;;;;;77.45;34.85;;;1.60;99.90;;;;;;5046046;28;20155;-73
2023/01/26 06:29:17;;;;;;;74.13;33.35;;;1.50;99.90;;;;;;5044979;28;20029;-73
2023/01/26 06:31:43;;;;;;;79.22;35.05;;;1.50;99.90;;;;;;5049359;28;20632;-73
2023/01/26 06:34:09;;;;;;;73.65;33.13;;;1.50;99.90;;;;;;5043764;28;20086;-71
2023/01/26 06:36:35;;;;;;;80.20;35.63;;;1.50;99.90;;;;;;5041038;28;20375;-70
2023/01/26 06:39:01;;;;;;;72.72;31.77;;;1.60;99.90;;;;;;5041753;28;20065;-74
2023/01/26 06:41:26;;;;;;;75.00;34.17;;;1.60;99.90;;;;;;5046705;28;20083;-72
2023/01/26 06:43:52;;;;;;;72.90;32.70;;;1.60;99.90;;;;;;5046102;28;20025;-72
2023/01/26 06:46:18;;;;;;;78.88;34.53;;;1.70;99.90;;;;;;5046441;28;20485;-70
2023/01/26 06:48:44;;;;;;;78.38;36.33;;;1.70;99.90;;;;;;5040490;28;20467;-71
2023/01/26 06:51:19;;;;;;;76.25;33.60;;;1.60;99.90;;;;;;5044918;28;20029;-72
2023/01/26 06:53:56;;;;;;;78.70;35.53;;;1.60;99.90;;;;;;5046859;28;20061;-71
2023/01/26 06:56:23;;;;;;;74.25;33.10;;;1.70;99.90;;;;;;5042649;28;20034;-72
2023/01/26 06:58:49;;;;;;;75.95;33.25;;;1.60;99.90;;;;;;5051873;28;20112;-73
2023/01/26 07:01:24;;;;;;;72.00;32.70;;;1.60;99.90;;;;;;5059713;28;20104;-73
2023/01/26 07:03:51;;;;;;;71.53;33.22;;;1.60;99.90;;;;;;5049970;28;20037;-73
2023/01/26 07:06:18;;;;;;;67.28;30.85;;;1.60;99.90;;;;;;5043435;28;20029;-72
2023/01/26 07:08:43;;;;;;;68.30;31.05;;;1.60;99.90;;;;;;5043590;28;20025;-70
2023/01/26 07:11:10;;;;;;;79.10;32.97;;;1.60;99.90;;;;;;5033168;28;20496;-71
2023/01/26 07:13:35;;;;;;;72.82;31.48;;;1.60;99.90;;;;;;5033056;28;20196;-72
2023/01/26 07:16:03;;;;;;;68.80;30.48;;;1.60;99.90;;;;;;5032541;28;20157;-71
2023/01/26 07:18:28;;;;;;;70.03;31.45;;;1.70;99.90;;;;;;5034374;28;20033;-75
2023/01/26 07:20:58;;;;;;;73.38;31.42;;;1.70;99.90;;;;;;5000945;28;20399;-74
2023/01/26 07:23:24;;;;;;;70.30;32.70;;;1.70;99.90;;;;;;5033228;28;20033;-71
2023/01/26 07:25:49;;;;;;;68.18;29.08;;;1.70;99.90;;;;;;5032491;28;20030;-71
2023/01/26 07:28:15;;;;;;;67.18;31.08;;;1.70;99.90;;;;;;5032985;28;20033;-71
2023/01/26 07:30:40;;;;;;;67.53;31.48;;;1.70;99.90;;;;;;5032500;28;20045;-72
2023/01/26 07:33:06;;;;;;;68.28;30.73;;;1.80;99.90;;;;;;5032396;28;20029;-71
2023/01/26 07:35:31;;;;;;;72.65;32.40;;;1.80;99.90;;;;;;5032401;28;20368;-74
2023/01/26 07:37:57;;;;;;;66.13;29.98;;;1.90;99.90;;;;;;5033375;28;20034;-72
2023/01/26 07:40:23;;;;;;;67.28;30.63;;;1.90;99.90;;;;;;5032731;28;20029;-70
2023/01/26 07:42:49;;;;;;;68.20;31.45;;;1.90;99.90;;;;;;5032442;28;20033;-73
2023/01/26 07:45:16;;;;;;;64.75;30.15;;;1.90;99.90;;;;;;5033172;28;20033;-74
2023/01/26 07:47:42;;;;;;;69.53;30.40;;;2.00;99.90;;;;;;5033775;28;20036;-73
2023/01/26 07:50:09;;;;;;;64.57;30.48;;;2.00;99.90;;;;;;5033595;28;20018;-72
2023/01/26 07:52:35;;;;;;;62.63;29.35;;;2.00;99.90;;;;;;5033182;28;20018;-70
2023/01/26 07:55:01;;;;;;;67.95;30.58;;;2.20;99.90;;;;;;5031128;28;20021;-72
2023/01/26 07:57:26;;;;;;;67.07;30.48;;;2.10;99.90;;;;;;5031585;28;20021;-72
2023/01/26 07:59:52;;;;;;;64.70;28.65;;;2.10;99.90;;;;;;5032157;28;20123;-71
2023/01/26 08:02:17;;;;;;;65.88;29.60;;;2.10;99.90;;;;;;5032039;28;20021;-72
2023/01/26 08:04:43;;;;;;;63.15;28.80;;;2.10;99.90;;;;;;5031717;28;20447;-77
2023/01/26 08:07:08;;;;;;;62.88;29.23;;;2.20;99.90;;;;;;5031882;28;20035;-77
2023/01/26 08:09:34;;;;;;;64.93;28.58;;;2.30;99.90;;;;;;5032154;28;20079;-75
2023/01/26 08:12:00;;;;;;;61.80;29.40;;;2.30;99.90;;;;;;5032097;28;20025;-72
2023/01/26 08:14:26;;;;;;;67.00;30.40;;;2.40;99.90;;;;;;5032749;28;20040;-74
2023/01/26 08:16:52;;;;;;;51.28;24.90;;;2.40;99.90;;;;;;5031948;28;20486;-74
2023/01/26 08:19:17;;;;;;;55.08;25.13;;;2.40;99.90;;;;;;5031825;28;20376;-75
2023/01/26 08:21:43;;;;;;;53.47;24.92;;;2.40;99.90;;;;;;5030396;28;20108;-74
2023/01/26 08:24:11;;;;;;;49.47;24.08;;;2.30;99.90;;;;;;5031763;28;20096;-76
2023/01/26 08:26:36;;;;;;;52.17;23.92;;;2.20;99.90;;;;;;5031486;28;20029;-73
2023/01/26 08:29:02;;;;;;;47.13;23.33;;;2.20;99.90;;;;;;5032061;28;20034;-76
2023/01/26 08:31:27;;;;;;;47.00;23.25;;;2.30;99.90;;;;;;5031769;28;20050;-72
2023/01/26 08:33:55;;;;;;;44.35;20.83;;;2.20;99.90;;;;;;5049432;28;20036;-71
2023/01/26 08:36:21;;;;;;;46.60;23.35;;;2.20;99.90;;;;;;5051353;28;20211;-71
2023/01/26 08:38:47;;;;;;;46.35;21.90;;;2.20;99.90;;;;;;5052525;28;20078;-71
2023/01/26 08:41:13;;;;;;;44.95;22.15;;;2.20;99.90;;;;;;5051996;28;20060;-71
2023/01/26 08:43:39;;;;;;;45.45;21.73;;;2.30;99.90;;;;;;5051698;28;20525;-72
2023/01/26 08:46:04;;;;;;;38.72;19.17;;;2.20;99.90;;;;;;5051162;28;20036;-73
2023/01/26 08:48:30;;;;;;;39.50;19.80;;;2.30;99.90;;;;;;5051721;28;20029;-72
2023/01/26 08:50:58;;;;;;;40.88;20.10;;;2.40;99.90;;;;;;5051552;28;20039;-72
2023/01/26 08:53:24;;;;;;;41.90;19.83;;;2.40;99.90;;;;;;5051882;28;20104;-73
2023/01/26 08:55:50;;;;;;;41.85;20.27;;;2.40;99.90;;;;;;5050679;28;20064;-73
2023/01/26 08:58:15;;;;;;;35.95;18.67;;;2.40;99.90;;;;;;5051743;28;20052;-72
2023/01/26 09:00:41;;;;;;;38.20;19.10;;;2.40;99.90;;;;;;5051735;28;20383;-73
2023/01/26 09:03:07;;;;;;;40.30;18.95;;;2.30;99.90;;;;;;5051291;28;20496;-72
2023/01/26 09:05:35;;;;;;;43.28;18.40;;;2.30;99.90;;;;;;5051249;28;20367;-73
2023/01/26 09:08:05;;;;;;;39.28;19.02;;;2.30;99.90;;;;;;5052007;28;20021;-73
2023/01/26 09:10:31;;;;;;;48.90;21.25;;;2.30;99.90;;;;;;5051087;28;20106;-70
2023/01/26 09:12:58;;;;;;;39.20;19.70;;;2.40;99.90;;;;;;5051713;28;20487;-74
2023/01/26 09:15:24;;;;;;;36.70;18.98;;;2.40;99.90;;;;;;5051878;28;20486;-74
2023/01/26 09:17:50;;;;;;;36.08;17.77;;;2.40;99.90;;;;;;5052065;28;20028;-72
2023/01/26 09:20:17;;;;;;;36.40;18.00;;;2.40;99.90;;;;;;5052537;28;20029;-73
2023/01/26 09:22:42;;;;;;;39.38;19.65;;;2.50;99.90;;;;;;5049848;28;20021;-71
2023/01/26 09:25:09;;;;;;;37.17;18.50;;;2.50;99.90;;;;;;5050062;28;20458;-72
2023/01/26 09:27:35;;;;;;;38.15;18.10;;;2.50;99.90;;;;;;5050472;28;20029;-73
2023/01/26 09:30:01;;;;;;;41.13;19.45;;;2.60;99.90;;;;;;5050887;28;20043;-73
2023/01/26 09:32:26;;;;;;;42.15;18.80;;;2.50;99.90;;;;;;5051222;28;20028;-73
2023/01/26 09:34:52;;;;;;;43.20;18.95;;;2.50;99.90;;;;;;5050895;28;20382;-72
2023/01/26 09:37:17;;;;;;;39.42;19.02;;;2.60;99.90;;;;;;5050637;28;20057;-72
2023/01/26 09:39:43;;;;;;;39.58;18.98;;;2.60;99.90;;;;;;5050989;28;20528;-72
2023/01/26 09:42:23;;;;;;;45.75;20.52;;;2.60;99.90;;;;;;5051658;28;20107;-72
2023/01/26 09:45:11;;;;;;;44.13;19.63;;;2.60;99.90;;;;;;5051860;28;20111;-74
2023/01/26 09:48:16;;;;;;;44.35;20.50;;;2.60;99.90;;;;;;5051379;28;20482;-73
2023/01/26 09:50:49;;;;;;;49.67;20.70;;;2.60;99.90;;;;;;5051914;28;20112;-73
2023/01/26 09:53:37;;;;;;;49.00;19.80;;;2.60;99.90;;;;;;5052125;28;20029;-74
2023/01/26 09:56:03;;;;;;;46.22;20.23;;;2.70;99.90;;;;;;5051527;28;20124;-73
2023/01/26 09:58:28;;;;;;;48.38;21.23;;;2.70;99.90;;;;;;5051319;28;20027;-75
2023/01/26 10:00:59;;;;;;;50.22;20.33;;;2.80;99.90;;;;;;5051078;28;20437;-73
2023/01/26 10:03:49;;;;;;;50.78;20.55;;;2.80;99.90;;;;;;5051036;28;20110;-73
2023/01/26 10:06:30;;;;;;;48.13;20.88;;;2.90;99.90;;;;;;5051077;28;20029;-76
2023/01/26 10:08:59;;;;;;;50.17;20.77;;;2.90;99.90;;;;;;5054286;28;20106;-78
2023/01/26 10:11:40;;;;;;;58.60;22.27;;;3.00;99.90;;;;;;5056753;28;20067;-76
2023/01/26 10:14:17;;;;;;;69.82;23.75;;;3.00;99.90;;;;;;5056680;28;20486;-76
2023/01/26 10:16:45;;;;;;;55.47;22.20;;;3.00;99.90;;;;;;5055393;28;20021;-77
2023/01/26 10:19:39;;;;;;;62.05;23.83;;;2.90;99.90;;;;;;5057478;28;20021;-77
2023/01/26 10:22:29;;;;;;;58.80;22.20;;;3.00;99.90;;;;;;5054859;28;20386;-75
2023/01/26 10:24:57;;;;;;;63.53;23.80;;;3.00;99.90;;;;;;5055055;28;20056;-76
2023/01/26 10:27:23;;;;;;;65.13;24.17;;;3.10;99.90;;;;;;5055842;28;20029;-75
2023/01/26 10:29:48;;;;;;;58.72;22.75;;;3.20;99.90;;;;;;5056011;28;20040;-77
2023/01/26 10:32:16;;;;;;;66.18;24.13;;;3.20;99.90;;;;;;5056536;28;20301;-74
2023/01/26 10:34:45;;;;;;;60.90;24.23;;;3.30;99.90;;;;;;5055060;28;20027;-73
2023/01/26 10:37:22;;;;;;;67.07;25.00;;;3.20;99.90;;;;;;5054229;28;20071;-71
2023/01/26 10:40:01;;;;;;;60.65;24.77;;;3.30;99.90;;;;;;5054320;28;20389;-72
2023/01/26 10:42:29;;;;;;;60.90;23.90;;;3.30;99.90;;;;;;5054206;28;20359;-71
2023/01/26 10:44:56;;;;;;;64.50;23.92;;;3.30;99.90;;;;;;5056537;28;20025;-73
2023/01/26 10:47:21;;;;;;;59.47;23.67;;;3.40;99.90;;;;;;5055678;28;20481;-73
2023/01/26 10:49:48;;;;;;;62.25;24.90;;;3.50;99.90;;;;;;5057418;28;20075;-74
2023/01/26 10:52:26;;;;;;;64.70;25.23;;;3.50;99.90;;;;;;5056320;28;20476;-74
2023/01/26 10:55:09;;;;;;;68.22;27.08;;;3.50;99.90;;;;;;5053348;28;20077;-74
2023/01/26 10:57:38;;;;;;;59.35;24.15;;;3.60;99.90;;;;;;5053064;28;20024;-72
2023/01/26 11:00:27;;;;;;;65.22;23.52;;;3.60;99.90;;;;;;5053867;28;20040;-77
2023/01/26 11:03:05;;;;;;;59.35;23.85;;;3.60;99.90;;;;;;5053255;28;20025;-72
2023/01/26 11:05:31;;;;;;;64.15;24.80;;;3.50;99.90;;;;;;5053075;28;20474;-71
2023/01/26 11:08:01;;;;;;;62.28;22.75;;;3.40;99.90;;;;;;5051869;28;20031;-73
2023/01/26 11:10:35;;;;;;;69.80;25.92;;;3.40;99.90;;;;;;5053103;28;20096;-73
2023/01/26 11:13:18;;;;;;;60.67;25.35;;;3.50;99.90;;;;;;5053030;28;20020;-72
2023/01/26 11:15:51;;;;;;;55.70;23.45;;;3.50;99.90;;;;;;5052610;28;20394;-73
2023/01/26 11:18:41;;;;;;;72.28;25.02;;;3.60;99.90;;;;;;5053309;28;20024;-74
2023/01/26 11:21:23;;;;;;;67.13;25.73;;;3.50;99.90;;;;;;5052596;28;20117;-73
2023/01/26 11:23:58;;;;;;;64.15;25.27;;;3.60;99.90;;;;;;5051294;28;20041;-74
2023/01/26 11:27:07;;;;;;;64.85;25.33;;;3.60;99.90;;;;;;5052414;28;20049;-73
2023/01/26 11:30:03;;;;;;;68.32;25.67;;;3.60;99.90;;;;;;4991075;28;20075;-73
2023/01/26 11:32:55;;;;;;;68.10;27.63;;;3.70;99.90;;;;;;5051980;28;20037;-73
2023/01/26 11:35:48;;;;;;;66.05;25.90;;;3.80;99.90;;;;;;5052372;28;20036;-72
2023/01/26 11:38:36;;;;;;;72.40;27.48;;;3.80;99.90;;;;;;5052973;28;20021;-74
2023/01/26 11:41:46;;;;;;;70.63;27.77;;;3.90;99.90;;;;;;5053262;28;20025;-74
2023/01/26 11:44:50;;;;;;;71.63;29.40;;;3.90;99.90;;;;;;5025789;28;20066;-71
2023/01/26 11:47:41;;;;;;;63.47;24.92;;;3.90;99.90;;;;;;5051230;28;20033;-72
2023/01/26 11:50:36;;;;;;;69.45;25.83;;;4.00;99.90;;;;;;5043775;28;20397;-71
2023/01/26 11:53:36;;;;;;;66.38;25.27;;;4.00;99.90;;;;;;5052523;28;20072;-72
2023/01/26 11:56:14;;;;;;;71.88;26.00;;;4.00;99.90;;;;;;5051861;28;20025;-72
2023/01/26 11:58:49;;;;;;;62.33;24.77;;;4.00;99.90;;;;;;5052436;28;20428;-72
2023/01/26 12:01:27;;;;;;;78.00;29.90;;;4.00;99.90;;;;;;5052362;28;20482;-72
2023/01/26 12:03:54;;;;;;;63.35;25.58;;;4.00;99.90;;;;;;5052872;28;20025;-73
2023/01/26 12:06:36;;;;;;;62.08;23.83;;;4.00;99.90;;;;;;5051911;28;20541;-74
2023/01/26 12:09:09;;;;;;;63.00;24.15;;;4.10;99.90;;;;;;5052650;28;20021;-71
2023/01/26 12:11:40;;;;;;;64.95;25.23;;;4.00;99.90;;;;;;5051937;28;20076;-73
2023/01/26 12:14:21;;;;;;;67.50;25.10;;;4.00;99.90;;;;;;5051819;28;20033;-73
2023/01/26 12:17:17;;;;;;;61.70;24.40;;;4.00;99.90;;;;;;5051455;28;20029;-73
2023/01/26 12:19:47;;;;;;;;;;;4.00;99.90;;;;;;5052324;28;20060;-73
2023/01/26 12:22:27;;;;;;;63.10;24.23;;;4.00;99.90;;;;;;5051713;28;19908;-72
2023/01/26 12:25:27;;;;;;;67.40;25.95;;;3.90;99.90;;;;;;5052156;28;20021;-72
2023/01/26 12:28:15;;;;;;;73.38;27.85;;;3.90;99.90;;;;;;5051741;28;20016;-73
2023/01/26 12:30:50;;;;;;;79.43;28.30;;;4.00;99.90;;;;;;5051539;28;20447;-73
2023/01/26 12:33:16;;;;;;;98.72;29.33;;;4.00;99.90;;;;;;5051952;28;20032;-73
2023/01/26 12:35:55;;;;;;;74.63;27.48;;;4.00;99.90;;;;;;5051407;28;20094;-74
2023/01/26 12:38:23;;;;;;;72.00;27.85;;;4.00;99.90;;;;;;5051859;28;20036;-74
2023/01/26 12:41:04;;;;;;;69.13;25.85;;;4.00;99.90;;;;;;5051735;28;20029;-74
2023/01/26 12:43:57;;;;;;;67.88;25.98;;;4.00;99.90;;;;;;5051811;28;20032;-72
2023/01/26 12:46:24;;;;;;;74.90;25.13;;;;;;;;;;5051293;28;20028;-73
2023/01/26 12:49:01;;;;;;;64.25;24.98;;;4.20;99.90;;;;;;5051729;28;20068;-74
2023/01/26 12:51:33;;;;;;;69.03;25.92;;;4.20;99.90;;;;;;5051170;28;20021;-73
2023/01/26 12:54:30;;;;;;;55.72;22.08;;;4.20;99.90;;;;;;5052647;28;20506;-74
2023/01/26 12:56:59;;;;;;;49.75;20.00;;;4.20;99.90;;;;;;5052251;28;20029;-72
2023/01/26 12:59:32;;;;;;;47.10;19.98;;;4.20;99.90;;;;;;5052718;28;20107;-74
2023/01/26 13:01:58;;;;;;;47.30;19.33;;;4.20;99.90;;;;;;5052472;28;20025;-75
2023/01/26 13:04:24;;;;;;;37.08;15.32;;;4.20;99.90;;;;;;5051928;28;20386;-73
2023/01/26 13:07:16;;;;;;;39.20;17.02;;;4.30;99.90;;;;;;5050264;28;20568;-72
2023/01/26 13:10:08;;;;;;;38.67;16.13;;;4.30;99.90;;;;;;5050214;28;20025;-74
2023/01/26 13:12:52;;;;;;;42.95;16.35;;;4.30;99.90;;;;;;5051680;28;20055;-73
2023/01/26 13:15:21;;;;;;;33.78;15.25;;;4.30;99.90;;;;;;5051617;28;20040;-76
2023/01/26 13:17:52;;;;;;;38.53;15.45;;;4.30;99.90;;;;;;5052964;28;20025;-75
2023/01/26 13:20:42;;;;;;;33.75;14.65;;;4.30;99.90;;;;;;5054271;28;20029;-76
2023/01/26 13:23:41;;;;;;;34.10;13.57;;;4.40;99.90;;;;;;5053962;28;20021;-76
2023/01/26 13:26:22;;;;;;;35.88;14.25;;;4.40;99.90;;;;;;5051376;28;20024;-76
2023/01/26 13:28:48;;;;;;;36.97;15.38;;;4.40;99.90;;;;;;5052709;28;20028;-79
2023/01/26 13:31:30;;;;;;;37.03;15.38;;;4.30;99.90;;;;;;5054721;28;20017;-76
2023/01/26 13:33:59;;;;;;;40.78;14.25;;;4.30;99.90;;;;;;5052814;28;20056;-77